LEMG Informações do Aeroporto

Informações da Pista
Pista 12 Comprimento 9022 ft Largura 148 ft
Elevação 52 ft Limite 0 ft Heading 119
Pista 30 Comprimento 9022 ft Largura 148 ft
Elevação 31 ft Limite 0 ft Heading 299
Pista 13 Comprimento 10500 ft Largura 148 ft
Elevação 52 ft Limite 0 ft Heading 133
Pista 31 Comprimento 10500 ft Largura 148 ft
Elevação 31 ft Limite 0 ft Heading 313
Frequências do Aeroporto
Tipo A/D Nome APP Frequência 123.85 MHZ
Tipo ATIS Nome ATIS Frequência 120.375 MHZ
Tipo CLD Nome CLR DEL Frequência 121.875 MHZ
Tipo GND Nome GND-W Frequência 121.7 MHZ
Tipo GND Nome GND-E Frequência 121.95 MHZ
Tipo TWR Nome TWR-W (RWY Frequência 118.15 MHZ
Tipo TWR Nome TWR-E (RWY Frequência 118.775 MHZ
Navaids do Aeroporto
Tipo VOR-DME Nome Martin Frequência 112600 KHZ
Tipo VOR-DME Nome Malaga Frequência 112000 KHZ
Tipo VOR-DME Nome Malaga Frequência 113550 KHZ
Tipo NDB Nome Malaga Frequência 330 KHZ
Informações meteorológicas do aeroporto e NOTAM
ADDS - METARS form results

(2124 UTC 07 December 2019)
Data provider http://aviationweather.gov/metar/data/
 
METAR text: LEMG 072100Z 27003KT 9999 FEW012 13/11 Q1025 NOSIG
Conditions at: LEMG (MALAGA (CIV/MIL), ES) observed 2100 UTC 07 December 2019
Temperature: 13.0°C (55°F)
Dewpoint: 11.0°C (52°F) [RH = 88%]
Pressure (altimeter): 30.27 inches Hg (1025.0 mb)
Winds: from the W (270 degrees) at 3 MPH (3 knots; 1.5 m/s)
Visibility: 6 or more miles (10+ km)
Ceiling: at least 12,000 feet AGL
Clouds: few clouds at 1200 feet AGL
Weather: no significant weather observed at this time

METAR text: LEMG 072030Z VRB02KT 9999 FEW012 12/10 Q1025 NOSIG
Conditions at: LEMG (MALAGA (CIV/MIL), ES) observed 2030 UTC 07 December 2019
Temperature: 12.0°C (54°F)
Dewpoint: 10.0°C (50°F) [RH = 88%]
Pressure (altimeter): 30.27 inches Hg (1025.0 mb)
Winds: variable direction winds at 2 MPH (2 knots; 1.0 m/s)
Visibility: 6 or more miles (10+ km)
Ceiling: at least 12,000 feet AGL
Clouds: few clouds at 1200 feet AGL
Weather: no significant weather observed at this time

Forecast for: LEMG (MALAGA (CIV/MIL), ES)
Text: TAF LEMG 071700Z 0718/0818 30008KT 9999 FEW040 TX21/0814Z TN11/0806Z
Forecast period: 1800 UTC 07 December 2019 to 1800 UTC 08 December 2019
Forecast type: FROM: standard forecast or significant change
Winds: from the WNW (300 degrees) at 9 MPH (8 knots; 4.1 m/s)
Visibility: 6 or more miles 10+ km)
Ceiling: at least 12,000 feet AGL
Clouds: few clouds at 4000 feet AGL
Weather: no significant weather forecast for this period
Text: TEMPO 0718/0719 18010KT
Forecast period: 1800 to 1900 UTC 07 December 2019
Forecast type: TEMPORARY: The following changes expected for less than half the time period
Winds: from the S (180 degrees) at 12 MPH (10 knots; 5.1 m/s)
Visibility: missing
Ceiling: unknown
Clouds: missing
Weather: no significant weather forecast for this period